sensor_id;sensor_type;location;lat;lon;timestamp;P1;durP1;ratioP1;P2;durP2;ratioP2
46216;SDS011;47258;59.424;13.482;2022-07-29T00:01:03;2.45;;;1.25;;
46216;SDS011;47258;59.424;13.482;2022-07-29T00:03:30;1.17;;;0.68;;
46216;SDS011;47258;59.424;13.482;2022-07-29T00:05:57;0.82;;;0.70;;
46216;SDS011;47258;59.424;13.482;2022-07-29T00:08:24;2.25;;;0.80;;
46216;SDS011;47258;59.424;13.482;2022-07-29T00:10:51;0.93;;;0.90;;
46216;SDS011;47258;59.424;13.482;2022-07-29T00:13:18;0.60;;;0.60;;
46216;SDS011;47258;59.424;13.482;2022-07-29T00:15:46;1.48;;;0.65;;
46216;SDS011;47258;59.424;13.482;2022-07-29T00:18:13;0.77;;;0.70;;
46216;SDS011;47258;59.424;13.482;2022-07-29T00:20:40;0.82;;;0.82;;
46216;SDS011;47258;59.424;13.482;2022-07-29T00:23:07;1.25;;;1.15;;
46216;SDS011;47258;59.424;13.482;2022-07-29T00:25:34;0.90;;;0.90;;
46216;SDS011;47258;59.424;13.482;2022-07-29T00:28:01;1.20;;;1.10;;
46216;SDS011;47258;59.424;13.482;2022-07-29T00:30:28;1.13;;;1.00;;
46216;SDS011;47258;59.424;13.482;2022-07-29T00:32:56;0.77;;;0.77;;
46216;SDS011;47258;59.424;13.482;2022-07-29T00:35:23;1.50;;;0.80;;
46216;SDS011;47258;59.424;13.482;2022-07-29T00:38:07;0.90;;;0.90;;
46216;SDS011;47258;59.424;13.482;2022-07-29T00:40:34;2.33;;;1.20;;
46216;SDS011;47258;59.424;13.482;2022-07-29T00:43:01;0.88;;;0.88;;
46216;SDS011;47258;59.424;13.482;2022-07-29T00:45:28;1.85;;;0.80;;
46216;SDS011;47258;59.424;13.482;2022-07-29T00:47:57;1.77;;;1.00;;
46216;SDS011;47258;59.424;13.482;2022-07-29T00:50:24;1.05;;;1.02;;
46216;SDS011;47258;59.424;13.482;2022-07-29T00:52:52;0.90;;;0.90;;
46216;SDS011;47258;59.424;13.482;2022-07-29T00:55:19;0.95;;;0.80;;
46216;SDS011;47258;59.424;13.482;2022-07-29T00:57:46;0.93;;;0.93;;
46216;SDS011;47258;59.424;13.482;2022-07-29T01:00:15;1.40;;;1.13;;
46216;SDS011;47258;59.424;13.482;2022-07-29T01:02:44;1.88;;;0.60;;
46216;SDS011;47258;59.424;13.482;2022-07-29T01:05:15;0.90;;;0.90;;
46216;SDS011;47258;59.424;13.482;2022-07-29T01:07:44;0.80;;;0.80;;
46216;SDS011;47258;59.424;13.482;2022-07-29T01:10:14;0.80;;;0.80;;
46216;SDS011;47258;59.424;13.482;2022-07-29T01:12:42;0.80;;;0.80;;
46216;SDS011;47258;59.424;13.482;2022-07-29T01:15:10;3.43;;;1.03;;
46216;SDS011;47258;59.424;13.482;2022-07-29T01:17:41;0.90;;;0.90;;
46216;SDS011;47258;59.424;13.482;2022-07-29T01:20:13;0.68;;;0.68;;
46216;SDS011;47258;59.424;13.482;2022-07-29T01:23:07;1.45;;;0.60;;
46216;SDS011;47258;59.424;13.482;2022-07-29T01:25:48;1.30;;;1.08;;
46216;SDS011;47258;59.424;13.482;2022-07-29T01:28:39;1.65;;;0.80;;
46216;SDS011;47258;59.424;13.482;2022-07-29T01:31:16;1.25;;;1.02;;
46216;SDS011;47258;59.424;13.482;2022-07-29T01:34:01;2.47;;;0.90;;
46216;SDS011;47258;59.424;13.482;2022-07-29T01:36:32;0.70;;;0.70;;
46216;SDS011;47258;59.424;13.482;2022-07-29T01:39:06;0.77;;;0.77;;
46216;SDS011;47258;59.424;13.482;2022-07-29T01:41:36;0.60;;;0.60;;
46216;SDS011;47258;59.424;13.482;2022-07-29T01:44:19;1.30;;;1.20;;
46216;SDS011;47258;59.424;13.482;2022-07-29T01:46:54;0.98;;;0.98;;
46216;SDS011;47258;59.424;13.482;2022-07-29T01:49:25;0.82;;;0.82;;
46216;SDS011;47258;59.424;13.482;2022-07-29T01:51:57;0.60;;;0.60;;
46216;SDS011;47258;59.424;13.482;2022-07-29T01:54:30;0.75;;;0.75;;
46216;SDS011;47258;59.424;13.482;2022-07-29T01:57:00;0.57;;;0.57;;
46216;SDS011;47258;59.424;13.482;2022-07-29T01:59:31;1.02;;;1.02;;
46216;SDS011;47258;59.424;13.482;2022-07-29T02:02:01;1.95;;;1.10;;
46216;SDS011;47258;59.424;13.482;2022-07-29T02:04:28;2.63;;;0.70;;
46216;SDS011;47258;59.424;13.482;2022-07-29T02:07:00;0.60;;;0.60;;
46216;SDS011;47258;59.424;13.482;2022-07-29T02:09:30;0.63;;;0.63;;
46216;SDS011;47258;59.424;13.482;2022-07-29T02:11:59;0.80;;;0.80;;
46216;SDS011;47258;59.424;13.482;2022-07-29T02:14:28;1.00;;;0.80;;
46216;SDS011;47258;59.424;13.482;2022-07-29T02:16:59;2.67;;;1.42;;
46216;SDS011;47258;59.424;13.482;2022-07-29T02:19:28;1.08;;;1.00;;
46216;SDS011;47258;59.424;13.482;2022-07-29T02:21:57;0.90;;;0.90;;
46216;SDS011;47258;59.424;13.482;2022-07-29T02:24:25;2.30;;;0.60;;
46216;SDS011;47258;59.424;13.482;2022-07-29T02:26:53;1.08;;;1.02;;
46216;SDS011;47258;59.424;13.482;2022-07-29T02:29:23;0.77;;;0.63;;
46216;SDS011;47258;59.424;13.482;2022-07-29T02:31:54;0.98;;;0.98;;
46216;SDS011;47258;59.424;13.482;2022-07-29T02:34:23;0.60;;;0.60;;
46216;SDS011;47258;59.424;13.482;2022-07-29T02:36:50;1.40;;;0.77;;
46216;SDS011;47258;59.424;13.482;2022-07-29T02:39:20;0.70;;;0.70;;
46216;SDS011;47258;59.424;13.482;2022-07-29T02:41:50;0.70;;;0.70;;
46216;SDS011;47258;59.424;13.482;2022-07-29T02:44:20;0.80;;;0.80;;
46216;SDS011;47258;59.424;13.482;2022-07-29T02:46:50;0.90;;;0.90;;
46216;SDS011;47258;59.424;13.482;2022-07-29T02:49:29;0.80;;;0.75;;
46216;SDS011;47258;59.424;13.482;2022-07-29T02:52:02;1.05;;;0.95;;
46216;SDS011;47258;59.424;13.482;2022-07-29T02:54:34;0.70;;;0.65;;
46216;SDS011;47258;59.424;13.482;2022-07-29T02:57:06;2.38;;;0.80;;
46216;SDS011;47258;59.424;13.482;2022-07-29T02:59:39;1.33;;;0.80;;
46216;SDS011;47258;59.424;13.482;2022-07-29T03:02:09;0.80;;;0.80;;
46216;SDS011;47258;59.424;13.482;2022-07-29T03:04:40;6.65;;;0.85;;
46216;SDS011;47258;59.424;13.482;2022-07-29T03:07:09;1.02;;;0.80;;
46216;SDS011;47258;59.424;13.482;2022-07-29T03:09:40;0.77;;;0.77;;
46216;SDS011;47258;59.424;13.482;2022-07-29T03:12:08;1.05;;;0.95;;
46216;SDS011;47258;59.424;13.482;2022-07-29T03:14:35;0.85;;;0.82;;
46216;SDS011;47258;59.424;13.482;2022-07-29T03:17:04;1.88;;;0.77;;
46216;SDS011;47258;59.424;13.482;2022-07-29T03:19:31;0.70;;;0.70;;
46216;SDS011;47258;59.424;13.482;2022-07-29T03:22:02;0.73;;;0.73;;
46216;SDS011;47258;59.424;13.482;2022-07-29T03:24:30;2.53;;;1.00;;
46216;SDS011;47258;59.424;13.482;2022-07-29T03:26:58;1.23;;;1.00;;
46216;SDS011;47258;59.424;13.482;2022-07-29T03:29:25;0.93;;;0.90;;
46216;SDS011;47258;59.424;13.482;2022-07-29T03:31:53;1.02;;;0.98;;
46216;SDS011;47258;59.424;13.482;2022-07-29T03:34:20;3.70;;;1.77;;
46216;SDS011;47258;59.424;13.482;2022-07-29T03:36:47;1.10;;;0.80;;
46216;SDS011;47258;59.424;13.482;2022-07-29T03:39:17;0.80;;;0.80;;
46216;SDS011;47258;59.424;13.482;2022-07-29T03:41:47;0.85;;;0.82;;
46216;SDS011;47258;59.424;13.482;2022-07-29T03:44:18;0.80;;;0.80;;
46216;SDS011;47258;59.424;13.482;2022-07-29T03:46:46;3.72;;;0.98;;
46216;SDS011;47258;59.424;13.482;2022-07-29T03:51:44;2.20;;;1.00;;
46216;SDS011;47258;59.424;13.482;2022-07-29T03:54:12;1.95;;;1.10;;
46216;SDS011;47258;59.424;13.482;2022-07-29T03:56:41;3.42;;;1.05;;
46216;SDS011;47258;59.424;13.482;2022-07-29T03:59:12;2.85;;;0.80;;
46216;SDS011;47258;59.424;13.482;2022-07-29T04:01:41;0.87;;;0.87;;
46216;SDS011;47258;59.424;13.482;2022-07-29T04:04:09;6.18;;;0.88;;
46216;SDS011;47258;59.424;13.482;2022-07-29T04:06:37;0.95;;;0.80;;
46216;SDS011;47258;59.424;13.482;2022-07-29T04:09:05;0.70;;;0.70;;
46216;SDS011;47258;59.424;13.482;2022-07-29T04:11:33;2.03;;;1.10;;
46216;SDS011;47258;59.424;13.482;2022-07-29T04:14:01;3.50;;;0.85;;
46216;SDS011;47258;59.424;13.482;2022-07-29T04:16:28;6.13;;;1.48;;
46216;SDS011;47258;59.424;13.482;2022-07-29T04:18:55;0.57;;;0.57;;
46216;SDS011;47258;59.424;13.482;2022-07-29T04:21:22;1.92;;;1.52;;
46216;SDS011;47258;59.424;13.482;2022-07-29T04:23:49;0.68;;;0.68;;
46216;SDS011;47258;59.424;13.482;2022-07-29T04:26:16;0.73;;;0.50;;
46216;SDS011;47258;59.424;13.482;2022-07-29T04:28:44;0.80;;;0.80;;
46216;SDS011;47258;59.424;13.482;2022-07-29T04:31:13;0.52;;;0.52;;
46216;SDS011;47258;59.424;13.482;2022-07-29T04:33:40;1.45;;;0.55;;
46216;SDS011;47258;59.424;13.482;2022-07-29T04:36:07;0.98;;;0.63;;
46216;SDS011;47258;59.424;13.482;2022-07-29T04:38:36;2.67;;;0.70;;
46216;SDS011;47258;59.424;13.482;2022-07-29T04:41:03;0.60;;;0.60;;
46216;SDS011;47258;59.424;13.482;2022-07-29T04:43:32;0.70;;;0.70;;
46216;SDS011;47258;59.424;13.482;2022-07-29T04:45:59;1.23;;;1.08;;
46216;SDS011;47258;59.424;13.482;2022-07-29T04:48:27;0.55;;;0.50;;
46216;SDS011;47258;59.424;13.482;2022-07-29T04:50:54;1.52;;;0.70;;
46216;SDS011;47258;59.424;13.482;2022-07-29T04:53:21;5.40;;;1.08;;
46216;SDS011;47258;59.424;13.482;2022-07-29T04:55:48;1.58;;;0.93;;
46216;SDS011;47258;59.424;13.482;2022-07-29T04:58:15;0.85;;;0.63;;
46216;SDS011;47258;59.424;13.482;2022-07-29T05:00:43;1.65;;;0.60;;
46216;SDS011;47258;59.424;13.482;2022-07-29T05:03:09;0.75;;;0.70;;
46216;SDS011;47258;59.424;13.482;2022-07-29T05:05:38;5.07;;;1.00;;
46216;SDS011;47258;59.424;13.482;2022-07-29T05:08:05;0.90;;;0.90;;
46216;SDS011;47258;59.424;13.482;2022-07-29T05:10:32;1.27;;;1.17;;
46216;SDS011;47258;59.424;13.482;2022-07-29T05:13:03;0.80;;;0.80;;
46216;SDS011;47258;59.424;13.482;2022-07-29T05:15:30;0.85;;;0.85;;
46216;SDS011;47258;59.424;13.482;2022-07-29T05:17:57;1.90;;;1.45;;
46216;SDS011;47258;59.424;13.482;2022-07-29T05:20:24;1.05;;;0.95;;
46216;SDS011;47258;59.424;13.482;2022-07-29T05:22:54;1.00;;;0.90;;
46216;SDS011;47258;59.424;13.482;2022-07-29T05:25:22;1.33;;;1.23;;
46216;SDS011;47258;59.424;13.482;2022-07-29T05:27:49;3.03;;;1.08;;
46216;SDS011;47258;59.424;13.482;2022-07-29T05:30:17;1.20;;;1.10;;
46216;SDS011;47258;59.424;13.482;2022-07-29T05:32:44;1.67;;;1.13;;
46216;SDS011;47258;59.424;13.482;2022-07-29T05:35:12;1.80;;;1.00;;
46216;SDS011;47258;59.424;13.482;2022-07-29T05:37:39;0.93;;;0.88;;
46216;SDS011;47258;59.424;13.482;2022-07-29T05:40:08;0.70;;;0.70;;
46216;SDS011;47258;59.424;13.482;2022-07-29T05:42:35;0.95;;;0.90;;
46216;SDS011;47258;59.424;13.482;2022-07-29T05:45:03;0.57;;;0.57;;
46216;SDS011;47258;59.424;13.482;2022-07-29T05:47:31;0.77;;;0.77;;
46216;SDS011;47258;59.424;13.482;2022-07-29T05:49:57;1.25;;;1.10;;
46216;SDS011;47258;59.424;13.482;2022-07-29T05:52:24;1.25;;;1.15;;
46216;SDS011;47258;59.424;13.482;2022-07-29T05:54:52;0.85;;;0.85;;
46216;SDS011;47258;59.424;13.482;2022-07-29T05:57:21;0.80;;;0.80;;
46216;SDS011;47258;59.424;13.482;2022-07-29T06:02:15;0.63;;;0.60;;
46216;SDS011;47258;59.424;13.482;2022-07-29T06:04:43;1.40;;;0.90;;
46216;SDS011;47258;59.424;13.482;2022-07-29T06:07:10;3.33;;;1.13;;
46216;SDS011;47258;59.424;13.482;2022-07-29T06:09:37;2.85;;;0.80;;
46216;SDS011;47258;59.424;13.482;2022-07-29T06:12:04;0.95;;;0.88;;
46216;SDS011;47258;59.424;13.482;2022-07-29T06:14:33;0.80;;;0.80;;
46216;SDS011;47258;59.424;13.482;2022-07-29T06:17:00;2.33;;;1.02;;
46216;SDS011;47258;59.424;13.482;2022-07-29T06:19:27;1.45;;;1.00;;
46216;SDS011;47258;59.424;13.482;2022-07-29T06:21:54;1.08;;;0.93;;
46216;SDS011;47258;59.424;13.482;2022-07-29T06:24:21;0.45;;;0.45;;
46216;SDS011;47258;59.424;13.482;2022-07-29T06:26:48;0.50;;;0.50;;
46216;SDS011;47258;59.424;13.482;2022-07-29T06:29:15;1.17;;;0.50;;
46216;SDS011;47258;59.424;13.482;2022-07-29T06:31:44;0.40;;;0.40;;
46216;SDS011;47258;59.424;13.482;2022-07-29T06:34:11;2.13;;;1.10;;
46216;SDS011;47258;59.424;13.482;2022-07-29T06:36:38;2.08;;;0.70;;
46216;SDS011;47258;59.424;13.482;2022-07-29T06:39:05;1.35;;;0.57;;
46216;SDS011;47258;59.424;13.482;2022-07-29T06:41:32;0.95;;;0.47;;
46216;SDS011;47258;59.424;13.482;2022-07-29T06:44:00;0.60;;;0.60;;
46216;SDS011;47258;59.424;13.482;2022-07-29T06:46:27;0.40;;;0.40;;
46216;SDS011;47258;59.424;13.482;2022-07-29T06:48:56;0.60;;;0.60;;
46216;SDS011;47258;59.424;13.482;2022-07-29T06:51:23;0.77;;;0.68;;
46216;SDS011;47258;59.424;13.482;2022-07-29T06:53:50;1.55;;;0.50;;
46216;SDS011;47258;59.424;13.482;2022-07-29T06:56:17;0.50;;;0.50;;
46216;SDS011;47258;59.424;13.482;2022-07-29T06:58:44;0.40;;;0.40;;
46216;SDS011;47258;59.424;13.482;2022-07-29T07:01:11;2.55;;;0.32;;
46216;SDS011;47258;59.424;13.482;2022-07-29T07:03:38;0.25;;;0.25;;
46216;SDS011;47258;59.424;13.482;2022-07-29T07:06:08;0.60;;;0.35;;
46216;SDS011;47258;59.424;13.482;2022-07-29T07:08:36;0.40;;;0.40;;
46216;SDS011;47258;59.424;13.482;2022-07-29T07:11:03;0.30;;;0.30;;
46216;SDS011;47258;59.424;13.482;2022-07-29T07:13:31;0.30;;;0.30;;
46216;SDS011;47258;59.424;13.482;2022-07-29T07:15:59;0.20;;;0.20;;
46216;SDS011;47258;59.424;13.482;2022-07-29T07:18:27;1.23;;;0.60;;
46216;SDS011;47258;59.424;13.482;2022-07-29T07:20:54;0.45;;;0.45;;
46216;SDS011;47258;59.424;13.482;2022-07-29T07:23:23;0.50;;;0.50;;
46216;SDS011;47258;59.424;13.482;2022-07-29T07:25:50;0.55;;;0.55;;
46216;SDS011;47258;59.424;13.482;2022-07-29T07:28:18;0.35;;;0.30;;
46216;SDS011;47258;59.424;13.482;2022-07-29T07:30:45;0.73;;;0.60;;
46216;SDS011;47258;59.424;13.482;2022-07-29T07:33:12;2.20;;;0.40;;
46216;SDS011;47258;59.424;13.482;2022-07-29T07:35:39;0.20;;;0.20;;
46216;SDS011;47258;59.424;13.482;2022-07-29T07:38:06;0.43;;;0.43;;
46216;SDS011;47258;59.424;13.482;2022-07-29T07:40:34;0.65;;;0.38;;
46216;SDS011;47258;59.424;13.482;2022-07-29T07:43:02;0.50;;;0.50;;
46216;SDS011;47258;59.424;13.482;2022-07-29T07:45:29;2.00;;;0.50;;
46216;SDS011;47258;59.424;13.482;2022-07-29T07:47:57;0.47;;;0.47;;
46216;SDS011;47258;59.424;13.482;2022-07-29T07:50:24;0.77;;;0.60;;
46216;SDS011;47258;59.424;13.482;2022-07-29T07:52:52;0.40;;;0.40;;
46216;SDS011;47258;59.424;13.482;2022-07-29T07:55:20;0.65;;;0.30;;
46216;SDS011;47258;59.424;13.482;2022-07-29T07:57:48;0.90;;;0.20;;
46216;SDS011;47258;59.424;13.482;2022-07-29T08:00:16;1.10;;;0.50;;
46216;SDS011;47258;59.424;13.482;2022-07-29T08:02:44;0.50;;;0.50;;
46216;SDS011;47258;59.424;13.482;2022-07-29T08:05:11;0.20;;;0.20;;
46216;SDS011;47258;59.424;13.482;2022-07-29T08:07:41;0.57;;;0.43;;
46216;SDS011;47258;59.424;13.482;2022-07-29T08:10:09;0.63;;;0.20;;
46216;SDS011;47258;59.424;13.482;2022-07-29T08:12:36;0.65;;;0.40;;
46216;SDS011;47258;59.424;13.482;2022-07-29T08:15:05;1.02;;;0.30;;
46216;SDS011;47258;59.424;13.482;2022-07-29T08:17:33;1.95;;;0.30;;
46216;SDS011;47258;59.424;13.482;2022-07-29T08:20:00;0.15;;;0.13;;
46216;SDS011;47258;59.424;13.482;2022-07-29T08:22:27;3.40;;;0.30;;
46216;SDS011;47258;59.424;13.482;2022-07-29T08:24:54;0.30;;;0.30;;
46216;SDS011;47258;59.424;13.482;2022-07-29T08:27:21;2.65;;;0.32;;
46216;SDS011;47258;59.424;13.482;2022-07-29T08:29:51;0.30;;;0.30;;
46216;SDS011;47258;59.424;13.482;2022-07-29T08:32:19;0.20;;;0.20;;
46216;SDS011;47258;59.424;13.482;2022-07-29T08:34:46;0.20;;;0.20;;
46216;SDS011;47258;59.424;13.482;2022-07-29T08:37:13;3.10;;;0.30;;
46216;SDS011;47258;59.424;13.482;2022-07-29T08:39:40;0.30;;;0.30;;
46216;SDS011;47258;59.424;13.482;2022-07-29T08:42:07;0.25;;;0.25;;
46216;SDS011;47258;59.424;13.482;2022-07-29T08:44:35;0.98;;;0.40;;
46216;SDS011;47258;59.424;13.482;2022-07-29T08:47:03;0.57;;;0.30;;
46216;SDS011;47258;59.424;13.482;2022-07-29T08:49:32;0.82;;;0.82;;
46216;SDS011;47258;59.424;13.482;2022-07-29T08:52:01;0.30;;;0.30;;
46216;SDS011;47258;59.424;13.482;2022-07-29T08:54:29;3.30;;;0.33;;
46216;SDS011;47258;59.424;13.482;2022-07-29T08:56:56;2.20;;;0.20;;
46216;SDS011;47258;59.424;13.482;2022-07-29T08:59:24;0.43;;;0.43;;
46216;SDS011;47258;59.424;13.482;2022-07-29T09:01:53;1.63;;;0.47;;
46216;SDS011;47258;59.424;13.482;2022-07-29T09:04:24;0.73;;;0.60;;
46216;SDS011;47258;59.424;13.482;2022-07-29T09:06:54;2.72;;;0.50;;
46216;SDS011;47258;59.424;13.482;2022-07-29T09:09:24;2.17;;;0.50;;
46216;SDS011;47258;59.424;13.482;2022-07-29T09:11:51;0.43;;;0.43;;
46216;SDS011;47258;59.424;13.482;2022-07-29T09:14:19;1.85;;;0.40;;
46216;SDS011;47258;59.424;13.482;2022-07-29T09:16:50;0.25;;;0.25;;
46216;SDS011;47258;59.424;13.482;2022-07-29T09:19:19;0.30;;;0.30;;
46216;SDS011;47258;59.424;13.482;2022-07-29T09:21:51;0.30;;;0.30;;
46216;SDS011;47258;59.424;13.482;2022-07-29T09:24:27;0.25;;;0.25;;
46216;SDS011;47258;59.424;13.482;2022-07-29T09:27:08;0.52;;;0.22;;
46216;SDS011;47258;59.424;13.482;2022-07-29T09:29:47;0.10;;;0.10;;
46216;SDS011;47258;59.424;13.482;2022-07-29T09:32:21;1.55;;;0.45;;
46216;SDS011;47258;59.424;13.482;2022-07-29T09:34:47;0.55;;;0.38;;
46216;SDS011;47258;59.424;13.482;2022-07-29T09:37:26;0.50;;;0.50;;
46216;SDS011;47258;59.424;13.482;2022-07-29T09:39:54;0.40;;;0.40;;
46216;SDS011;47258;59.424;13.482;2022-07-29T09:42:27;0.30;;;0.30;;
46216;SDS011;47258;59.424;13.482;2022-07-29T09:44:57;3.10;;;0.40;;
46216;SDS011;47258;59.424;13.482;2022-07-29T09:47:27;0.40;;;0.40;;
46216;SDS011;47258;59.424;13.482;2022-07-29T09:50:07;2.50;;;0.30;;
46216;SDS011;47258;59.424;13.482;2022-07-29T09:52:43;5.78;;;0.50;;
46216;SDS011;47258;59.424;13.482;2022-07-29T09:55:12;0.40;;;0.40;;
46216;SDS011;47258;59.424;13.482;2022-07-29T09:57:40;1.23;;;0.40;;
46216;SDS011;47258;59.424;13.482;2022-07-29T10:00:08;1.02;;;0.30;;
46216;SDS011;47258;59.424;13.482;2022-07-29T10:02:36;2.60;;;0.22;;
46216;SDS011;47258;59.424;13.482;2022-07-29T10:05:05;0.30;;;0.30;;
46216;SDS011;47258;59.424;13.482;2022-07-29T10:07:46;1.67;;;0.40;;
46216;SDS011;47258;59.424;13.482;2022-07-29T10:10:18;0.52;;;0.52;;
46216;SDS011;47258;59.424;13.482;2022-07-29T10:12:53;2.15;;;0.43;;
46216;SDS011;47258;59.424;13.482;2022-07-29T10:15:23;0.55;;;0.32;;
46216;SDS011;47258;59.424;13.482;2022-07-29T10:17:52;0.35;;;0.35;;
46216;SDS011;47258;59.424;13.482;2022-07-29T10:20:20;0.50;;;0.30;;
46216;SDS011;47258;59.424;13.482;2022-07-29T10:22:50;0.40;;;0.40;;
46216;SDS011;47258;59.424;13.482;2022-07-29T10:25:18;0.40;;;0.40;;
46216;SDS011;47258;59.424;13.482;2022-07-29T10:27:46;2.08;;;0.40;;
46216;SDS011;47258;59.424;13.482;2022-07-29T10:30:16;1.13;;;0.50;;
46216;SDS011;47258;59.424;13.482;2022-07-29T10:32:49;0.40;;;0.40;;
46216;SDS011;47258;59.424;13.482;2022-07-29T10:35:27;0.65;;;0.57;;
46216;SDS011;47258;59.424;13.482;2022-07-29T10:38:10;0.45;;;0.45;;
46216;SDS011;47258;59.424;13.482;2022-07-29T10:40:59;0.40;;;0.40;;
46216;SDS011;47258;59.424;13.482;2022-07-29T10:43:50;0.57;;;0.52;;
46216;SDS011;47258;59.424;13.482;2022-07-29T10:46:19;1.30;;;0.40;;
46216;SDS011;47258;59.424;13.482;2022-07-29T10:51:54;0.13;;;0.13;;
46216;SDS011;47258;59.424;13.482;2022-07-29T10:54:44;0.52;;;0.52;;
46216;SDS011;47258;59.424;13.482;2022-07-29T10:57:19;0.57;;;0.45;;
46216;SDS011;47258;59.424;13.482;2022-07-29T10:59:51;2.10;;;0.40;;
46216;SDS011;47258;59.424;13.482;2022-07-29T11:02:43;0.60;;;0.60;;
46216;SDS011;47258;59.424;13.482;2022-07-29T11:05:13;0.65;;;0.60;;
46216;SDS011;47258;59.424;13.482;2022-07-29T11:10:46;0.98;;;0.90;;
46216;SDS011;47258;59.424;13.482;2022-07-29T11:16:11;3.88;;;0.68;;
46216;SDS011;47258;59.424;13.482;2022-07-29T11:21:40;2.25;;;0.70;;
46216;SDS011;47258;59.424;13.482;2022-07-29T11:24:11;0.90;;;0.57;;
46216;SDS011;47258;59.424;13.482;2022-07-29T11:26:40;1.20;;;0.30;;
46216;SDS011;47258;59.424;13.482;2022-07-29T11:29:15;2.65;;;0.55;;
46216;SDS011;47258;59.424;13.482;2022-07-29T11:31:46;0.30;;;0.30;;
46216;SDS011;47258;59.424;13.482;2022-07-29T11:34:24;1.20;;;0.60;;
46216;SDS011;47258;59.424;13.482;2022-07-29T11:42:54;0.50;;;0.50;;
46216;SDS011;47258;59.424;13.482;2022-07-29T11:45:22;0.75;;;0.50;;
46216;SDS011;47258;59.424;13.482;2022-07-29T11:48:17;0.57;;;0.57;;
46216;SDS011;47258;59.424;13.482;2022-07-29T11:50:44;0.40;;;0.40;;
46216;SDS011;47258;59.424;13.482;2022-07-29T11:53:12;0.85;;;0.50;;
46216;SDS011;47258;59.424;13.482;2022-07-29T11:55:40;0.50;;;0.50;;
46216;SDS011;47258;59.424;13.482;2022-07-29T11:58:08;2.92;;;0.50;;
46216;SDS011;47258;59.424;13.482;2022-07-29T12:00:36;0.45;;;0.45;;
46216;SDS011;47258;59.424;13.482;2022-07-29T12:03:05;3.83;;;0.40;;
46216;SDS011;47258;59.424;13.482;2022-07-29T12:05:36;0.28;;;0.28;;
46216;SDS011;47258;59.424;13.482;2022-07-29T12:08:09;0.32;;;0.30;;
46216;SDS011;47258;59.424;13.482;2022-07-29T12:10:38;1.17;;;0.43;;
46216;SDS011;47258;59.424;13.482;2022-07-29T12:13:06;1.65;;;0.57;;
46216;SDS011;47258;59.424;13.482;2022-07-29T12:15:34;0.32;;;0.30;;
46216;SDS011;47258;59.424;13.482;2022-07-29T12:18:11;0.38;;;0.38;;
46216;SDS011;47258;59.424;13.482;2022-07-29T12:20:39;0.63;;;0.40;;
46216;SDS011;47258;59.424;13.482;2022-07-29T12:23:06;0.50;;;0.43;;
46216;SDS011;47258;59.424;13.482;2022-07-29T12:25:36;0.82;;;0.45;;
46216;SDS011;47258;59.424;13.482;2022-07-29T12:28:05;0.60;;;0.60;;
46216;SDS011;47258;59.424;13.482;2022-07-29T12:30:35;1.20;;;0.43;;
46216;SDS011;47258;59.424;13.482;2022-07-29T12:33:15;0.55;;;0.50;;
46216;SDS011;47258;59.424;13.482;2022-07-29T12:35:45;0.55;;;0.55;;
46216;SDS011;47258;59.424;13.482;2022-07-29T12:38:14;0.60;;;0.60;;
46216;SDS011;47258;59.424;13.482;2022-07-29T12:40:41;2.50;;;0.70;;
46216;SDS011;47258;59.424;13.482;2022-07-29T12:43:10;5.45;;;1.40;;
46216;SDS011;47258;59.424;13.482;2022-07-29T12:45:41;0.85;;;0.60;;
46216;SDS011;47258;59.424;13.482;2022-07-29T12:48:09;0.55;;;0.50;;
46216;SDS011;47258;59.424;13.482;2022-07-29T12:50:51;0.60;;;0.60;;
46216;SDS011;47258;59.424;13.482;2022-07-29T12:53:19;2.33;;;0.50;;
46216;SDS011;47258;59.424;13.482;2022-07-29T12:55:47;0.80;;;0.80;;
46216;SDS011;47258;59.424;13.482;2022-07-29T12:58:26;3.55;;;0.90;;
46216;SDS011;47258;59.424;13.482;2022-07-29T13:01:03;2.65;;;0.50;;
46216;SDS011;47258;59.424;13.482;2022-07-29T13:03:48;3.70;;;0.57;;
46216;SDS011;47258;59.424;13.482;2022-07-29T13:06:30;0.85;;;0.52;;
46216;SDS011;47258;59.424;13.482;2022-07-29T13:08:59;1.40;;;0.63;;
46216;SDS011;47258;59.424;13.482;2022-07-29T13:11:30;0.50;;;0.40;;
46216;SDS011;47258;59.424;13.482;2022-07-29T13:13:57;1.98;;;0.57;;
46216;SDS011;47258;59.424;13.482;2022-07-29T13:16:26;0.77;;;0.40;;
46216;SDS011;47258;59.424;13.482;2022-07-29T13:19:09;1.93;;;0.70;;
46216;SDS011;47258;59.424;13.482;2022-07-29T13:21:38;1.20;;;0.77;;
46216;SDS011;47258;59.424;13.482;2022-07-29T13:24:06;1.17;;;0.57;;
46216;SDS011;47258;59.424;13.482;2022-07-29T13:26:34;0.70;;;0.70;;
46216;SDS011;47258;59.424;13.482;2022-07-29T13:29:05;3.72;;;0.80;;
46216;SDS011;47258;59.424;13.482;2022-07-29T13:31:34;2.58;;;0.82;;
46216;SDS011;47258;59.424;13.482;2022-07-29T13:34:01;1.40;;;0.77;;
46216;SDS011;47258;59.424;13.482;2022-07-29T13:36:28;1.10;;;0.73;;
46216;SDS011;47258;59.424;13.482;2022-07-29T13:38:55;1.15;;;1.13;;
46216;SDS011;47258;59.424;13.482;2022-07-29T13:41:22;0.90;;;0.90;;
46216;SDS011;47258;59.424;13.482;2022-07-29T13:43:49;1.27;;;1.10;;
46216;SDS011;47258;59.424;13.482;2022-07-29T13:46:16;0.55;;;0.45;;
46216;SDS011;47258;59.424;13.482;2022-07-29T13:48:44;4.75;;;1.10;;
46216;SDS011;47258;59.424;13.482;2022-07-29T13:51:11;0.47;;;0.47;;
46216;SDS011;47258;59.424;13.482;2022-07-29T13:53:38;2.53;;;0.60;;
46216;SDS011;47258;59.424;13.482;2022-07-29T13:56:05;0.93;;;0.65;;
46216;SDS011;47258;59.424;13.482;2022-07-29T13:58:32;3.13;;;0.75;;
46216;SDS011;47258;59.424;13.482;2022-07-29T14:00:59;0.80;;;0.80;;
46216;SDS011;47258;59.424;13.482;2022-07-29T14:03:26;0.73;;;0.73;;
46216;SDS011;47258;59.424;13.482;2022-07-29T14:05:55;1.23;;;0.90;;
46216;SDS011;47258;59.424;13.482;2022-07-29T14:08:24;0.60;;;0.60;;
46216;SDS011;47258;59.424;13.482;2022-07-29T14:10:52;1.63;;;0.98;;
46216;SDS011;47258;59.424;13.482;2022-07-29T14:13:19;0.65;;;0.65;;
46216;SDS011;47258;59.424;13.482;2022-07-29T14:15:46;0.55;;;0.55;;
46216;SDS011;47258;59.424;13.482;2022-07-29T14:18:12;1.60;;;0.90;;
46216;SDS011;47258;59.424;13.482;2022-07-29T14:20:39;1.05;;;0.47;;
46216;SDS011;47258;59.424;13.482;2022-07-29T14:23:08;2.35;;;0.80;;
46216;SDS011;47258;59.424;13.482;2022-07-29T14:25:35;0.60;;;0.60;;
46216;SDS011;47258;59.424;13.482;2022-07-29T14:28:02;0.68;;;0.68;;
46216;SDS011;47258;59.424;13.482;2022-07-29T14:30:29;0.93;;;0.70;;
46216;SDS011;47258;59.424;13.482;2022-07-29T14:32:56;1.10;;;0.70;;
46216;SDS011;47258;59.424;13.482;2022-07-29T14:35:23;0.88;;;0.63;;
46216;SDS011;47258;59.424;13.482;2022-07-29T14:37:50;1.67;;;0.98;;
46216;SDS011;47258;59.424;13.482;2022-07-29T14:40:18;0.75;;;0.75;;
46216;SDS011;47258;59.424;13.482;2022-07-29T14:42:45;3.47;;;1.08;;
46216;SDS011;47258;59.424;13.482;2022-07-29T14:45:12;1.70;;;0.70;;
46216;SDS011;47258;59.424;13.482;2022-07-29T14:47:39;2.20;;;0.65;;
46216;SDS011;47258;59.424;13.482;2022-07-29T14:50:06;0.52;;;0.52;;
46216;SDS011;47258;59.424;13.482;2022-07-29T14:52:34;1.98;;;1.20;;
46216;SDS011;47258;59.424;13.482;2022-07-29T14:55:01;1.48;;;0.85;;
46216;SDS011;47258;59.424;13.482;2022-07-29T14:57:30;0.90;;;0.90;;
46216;SDS011;47258;59.424;13.482;2022-07-29T14:59:57;1.42;;;0.90;;
46216;SDS011;47258;59.424;13.482;2022-07-29T15:02:24;0.90;;;0.60;;
46216;SDS011;47258;59.424;13.482;2022-07-29T15:04:51;0.70;;;0.70;;
46216;SDS011;47258;59.424;13.482;2022-07-29T15:07:18;1.55;;;0.52;;
46216;SDS011;47258;59.424;13.482;2022-07-29T15:09:45;0.65;;;0.65;;